sensor_id;sensor_type;location;lat;lon;timestamp;pressure;altitude;pressure_sealevel;temperature;humidity
59375;BME280;45172;55.006;73.460;2023-05-23T00:02:37;101544.22;;;10.95;67.71
59375;BME280;45172;55.006;73.460;2023-05-23T00:09:15;101552.91;;;11.18;69.58
59375;BME280;45172;55.006;73.460;2023-05-23T00:15:59;101533.50;;;11.19;66.64
59375;BME280;45172;55.006;73.460;2023-05-23T00:22:39;101553.34;;;11.90;65.51
59375;BME280;45172;55.006;73.460;2023-05-23T00:29:25;101522.94;;;12.10;63.37
59375;BME280;45172;55.006;73.460;2023-05-23T00:31:51;101548.72;;;12.46;63.72
59375;BME280;45172;55.006;73.460;2023-05-23T00:34:17;101556.53;;;12.73;64.00
59375;BME280;45172;55.006;73.460;2023-05-23T00:36:43;101554.38;;;12.94;62.87
59375;BME280;45172;55.006;73.460;2023-05-23T00:39:12;101551.31;;;13.13;62.28
59375;BME280;45172;55.006;73.460;2023-05-23T00:41:48;101556.25;;;13.35;61.83
59375;BME280;45172;55.006;73.460;2023-05-23T00:44:15;101561.25;;;13.58;61.81
59375;BME280;45172;55.006;73.460;2023-05-23T00:46:42;101558.09;;;13.77;60.24
59375;BME280;45172;55.006;73.460;2023-05-23T00:49:11;101566.50;;;13.96;59.07
59375;BME280;45172;55.006;73.460;2023-05-23T00:51:37;101545.31;;;14.02;59.73
59375;BME280;45172;55.006;73.460;2023-05-23T00:54:03;101565.53;;;14.37;58.26
59375;BME280;45172;55.006;73.460;2023-05-23T00:56:30;101571.25;;;14.59;57.31
59375;BME280;45172;55.006;73.460;2023-05-23T00:58:58;101570.88;;;14.85;56.75
59375;BME280;45172;55.006;73.460;2023-05-23T01:01:25;101566.75;;;15.04;55.33
59375;BME280;45172;55.006;73.460;2023-05-23T01:03:52;101564.41;;;15.24;54.63
59375;BME280;45172;55.006;73.460;2023-05-23T01:06:18;101564.66;;;15.41;53.90
59375;BME280;45172;55.006;73.460;2023-05-23T01:08:45;101569.22;;;15.50;53.12
59375;BME280;45172;55.006;73.460;2023-05-23T01:11:30;101569.44;;;15.64;53.17
59375;BME280;45172;55.006;73.460;2023-05-23T01:14:06;101548.13;;;15.69;53.29
59375;BME280;45172;55.006;73.460;2023-05-23T01:21:52;101565.88;;;16.33;53.40
59375;BME280;45172;55.006;73.460;2023-05-23T01:24:35;101569.63;;;16.52;52.50
59375;BME280;45172;55.006;73.460;2023-05-23T01:27:20;101558.97;;;16.57;52.36
59375;BME280;45172;55.006;73.460;2023-05-23T01:29:53;101569.06;;;16.86;50.92
59375;BME280;45172;55.006;73.460;2023-05-23T01:32:24;101564.69;;;16.94;50.58
59375;BME280;45172;55.006;73.460;2023-05-23T01:34:52;101574.72;;;17.17;50.61
59375;BME280;45172;55.006;73.460;2023-05-23T01:37:18;101565.84;;;17.28;50.49
59375;BME280;45172;55.006;73.460;2023-05-23T01:39:45;101561.53;;;17.48;50.11
59375;BME280;45172;55.006;73.460;2023-05-23T01:42:12;101565.22;;;17.71;50.13
59375;BME280;45172;55.006;73.460;2023-05-23T01:44:38;101565.31;;;17.89;48.43
59375;BME280;45172;55.006;73.460;2023-05-23T01:47:07;101559.19;;;18.07;48.11
59375;BME280;45172;55.006;73.460;2023-05-23T01:49:36;101564.59;;;18.26;47.04
59375;BME280;45172;55.006;73.460;2023-05-23T01:52:03;101532.41;;;18.25;46.63
59375;BME280;45172;55.006;73.460;2023-05-23T01:54:32;101565.56;;;18.62;46.88
59375;BME280;45172;55.006;73.460;2023-05-23T01:57:00;101549.47;;;18.67;46.21
59375;BME280;45172;55.006;73.460;2023-05-23T01:59:27;101570.97;;;18.98;45.61
59375;BME280;45172;55.006;73.460;2023-05-23T02:01:53;101565.63;;;19.11;45.78
59375;BME280;45172;55.006;73.460;2023-05-23T02:04:20;101543.22;;;19.15;45.21
59375;BME280;45172;55.006;73.460;2023-05-23T02:06:46;101575.41;;;19.40;44.63
59375;BME280;45172;55.006;73.460;2023-05-23T02:09:13;101557.53;;;19.40;43.50
59375;BME280;45172;55.006;73.460;2023-05-23T02:11:40;101579.84;;;19.67;44.00
59375;BME280;45172;55.006;73.460;2023-05-23T02:14:06;101569.94;;;19.82;42.61
59375;BME280;45172;55.006;73.460;2023-05-23T02:16:32;101584.25;;;20.01;42.48
59375;BME280;45172;55.006;73.460;2023-05-23T02:19:00;101565.41;;;20.03;42.13
59375;BME280;45172;55.006;73.460;2023-05-23T02:21:27;101537.66;;;19.91;42.50
59375;BME280;45172;55.006;73.460;2023-05-23T02:23:53;101568.03;;;20.20;42.08
59375;BME280;45172;55.006;73.460;2023-05-23T02:26:18;101577.75;;;20.44;42.58
59375;BME280;45172;55.006;73.460;2023-05-23T02:28:45;101579.47;;;20.58;41.35
59375;BME280;45172;55.006;73.460;2023-05-23T02:31:11;101583.00;;;20.67;41.03
59375;BME280;45172;55.006;73.460;2023-05-23T02:33:37;101596.38;;;20.78;39.80
59375;BME280;45172;55.006;73.460;2023-05-23T02:36:03;101590.09;;;20.84;40.78
59375;BME280;45172;55.006;73.460;2023-05-23T02:38:30;101591.69;;;21.05;40.06
59375;BME280;45172;55.006;73.460;2023-05-23T02:40:56;101591.59;;;21.18;39.78
59375;BME280;45172;55.006;73.460;2023-05-23T02:43:22;101596.09;;;21.19;39.65
59375;BME280;45172;55.006;73.460;2023-05-23T02:45:49;101589.72;;;21.28;39.64
59375;BME280;45172;55.006;73.460;2023-05-23T02:48:15;101572.66;;;21.29;38.85
59375;BME280;45172;55.006;73.460;2023-05-23T02:50:40;101602.94;;;21.53;38.06
59375;BME280;45172;55.006;73.460;2023-05-23T02:53:07;101594.72;;;21.68;37.36
59375;BME280;45172;55.006;73.460;2023-05-23T02:55:33;101586.56;;;21.74;37.10
59375;BME280;45172;55.006;73.460;2023-05-23T02:57:59;101602.66;;;21.84;37.38
59375;BME280;45172;55.006;73.460;2023-05-23T03:00:24;101597.97;;;22.00;37.52
59375;BME280;45172;55.006;73.460;2023-05-23T03:02:50;101592.53;;;22.01;36.77
59375;BME280;45172;55.006;73.460;2023-05-23T03:05:17;101590.88;;;21.93;37.44
59375;BME280;45172;55.006;73.460;2023-05-23T03:07:43;101588.75;;;22.16;37.34
59375;BME280;45172;55.006;73.460;2023-05-23T03:10:10;101596.66;;;22.30;36.42
59375;BME280;45172;55.006;73.460;2023-05-23T03:12:36;101584.94;;;22.35;35.36
59375;BME280;45172;55.006;73.460;2023-05-23T03:15:02;101590.19;;;22.42;36.93
59375;BME280;45172;55.006;73.460;2023-05-23T03:17:28;101552.59;;;22.30;35.07
59375;BME280;45172;55.006;73.460;2023-05-23T03:19:54;101582.91;;;22.52;34.85
59375;BME280;45172;55.006;73.460;2023-05-23T03:22:21;101571.44;;;22.33;34.88
59375;BME280;45172;55.006;73.460;2023-05-23T03:24:47;101572.50;;;22.21;34.87
59375;BME280;45172;55.006;73.460;2023-05-23T03:27:13;101579.63;;;22.27;35.30
59375;BME280;45172;55.006;73.460;2023-05-23T03:29:39;101580.47;;;22.32;35.37
59375;BME280;45172;55.006;73.460;2023-05-23T03:32:05;101580.25;;;22.48;35.39
59375;BME280;45172;55.006;73.460;2023-05-23T03:34:32;101582.03;;;22.47;35.60
59375;BME280;45172;55.006;73.460;2023-05-23T03:36:59;101556.94;;;22.40;35.62
59375;BME280;45172;55.006;73.460;2023-05-23T03:39:25;101589.91;;;22.64;35.54
59375;BME280;45172;55.006;73.460;2023-05-23T03:41:51;101583.41;;;22.78;35.28
59375;BME280;45172;55.006;73.460;2023-05-23T03:44:17;101580.53;;;22.89;35.47
59375;BME280;45172;55.006;73.460;2023-05-23T03:46:43;101593.22;;;22.85;34.59
59375;BME280;45172;55.006;73.460;2023-05-23T03:49:10;101566.53;;;22.65;34.56
59375;BME280;45172;55.006;73.460;2023-05-23T03:51:36;101595.16;;;22.77;34.33
59375;BME280;45172;55.006;73.460;2023-05-23T03:54:02;101589.56;;;22.88;35.41
59375;BME280;45172;55.006;73.460;2023-05-23T03:56:28;101570.06;;;22.68;35.50
59375;BME280;45172;55.006;73.460;2023-05-23T03:58:54;101588.56;;;22.93;35.34
59375;BME280;45172;55.006;73.460;2023-05-23T04:01:20;101589.34;;;23.00;35.57
59375;BME280;45172;55.006;73.460;2023-05-23T04:03:46;101588.53;;;22.95;35.42
59375;BME280;45172;55.006;73.460;2023-05-23T04:06:12;101564.78;;;22.59;35.47
59375;BME280;45172;55.006;73.460;2023-05-23T04:08:38;101595.94;;;22.82;35.70
59375;BME280;45172;55.006;73.460;2023-05-23T04:11:07;101578.72;;;22.91;35.93
59375;BME280;45172;55.006;73.460;2023-05-23T04:13:33;101584.59;;;23.15;35.61
59375;BME280;45172;55.006;73.460;2023-05-23T04:16:00;101581.66;;;23.30;34.71
59375;BME280;45172;55.006;73.460;2023-05-23T04:18:26;101588.16;;;23.17;34.38
59375;BME280;45172;55.006;73.460;2023-05-23T04:20:53;101588.50;;;22.98;34.32
59375;BME280;45172;55.006;73.460;2023-05-23T04:23:19;101590.59;;;22.80;34.54
59375;BME280;45172;55.006;73.460;2023-05-23T04:25:45;101587.22;;;22.64;34.83
59375;BME280;45172;55.006;73.460;2023-05-23T04:28:12;101592.63;;;22.63;34.00
59375;BME280;45172;55.006;73.460;2023-05-23T04:30:39;101589.91;;;22.64;34.36
59375;BME280;45172;55.006;73.460;2023-05-23T04:33:05;101588.97;;;22.68;34.77
59375;BME280;45172;55.006;73.460;2023-05-23T04:35:39;101596.72;;;22.90;33.46
59375;BME280;45172;55.006;73.460;2023-05-23T04:38:05;101596.34;;;23.12;33.88
59375;BME280;45172;55.006;73.460;2023-05-23T04:44:50;101589.81;;;23.27;31.33
59375;BME280;45172;55.006;73.460;2023-05-23T04:55:41;101592.94;;;23.52;31.27
59375;BME280;45172;55.006;73.460;2023-05-23T05:02:25;101570.34;;;23.58;29.90
59375;BME280;45172;55.006;73.460;2023-05-23T05:08:25;101589.38;;;23.98;30.05
59375;BME280;45172;55.006;73.460;2023-05-23T05:10:53;101575.66;;;24.08;28.38
59375;BME280;45172;55.006;73.460;2023-05-23T05:13:21;101586.38;;;24.13;28.46
59375;BME280;45172;55.006;73.460;2023-05-23T05:15:47;101575.56;;;24.13;26.89
59375;BME280;45172;55.006;73.460;2023-05-23T05:18:13;101570.97;;;24.17;27.92
59375;BME280;45172;55.006;73.460;2023-05-23T05:20:41;101566.59;;;24.10;26.98
59375;BME280;45172;55.006;73.460;2023-05-23T05:23:06;101585.44;;;24.16;27.19
59375;BME280;45172;55.006;73.460;2023-05-23T05:25:34;101563.97;;;24.05;27.05
59375;BME280;45172;55.006;73.460;2023-05-23T05:28:02;101576.50;;;24.11;26.64
59375;BME280;45172;55.006;73.460;2023-05-23T05:30:31;101565.00;;;23.99;26.80
59375;BME280;45172;55.006;73.460;2023-05-23T05:33:01;101536.41;;;23.86;26.70
59375;BME280;45172;55.006;73.460;2023-05-23T05:35:32;101556.75;;;24.05;27.08
59375;BME280;45172;55.006;73.460;2023-05-23T05:37:59;101562.72;;;24.23;27.43
59375;BME280;45172;55.006;73.460;2023-05-23T05:40:25;101560.56;;;24.38;27.70
59375;BME280;45172;55.006;73.460;2023-05-23T05:43:03;101556.78;;;24.45;27.06
59375;BME280;45172;55.006;73.460;2023-05-23T05:45:29;101546.72;;;24.52;26.19
59375;BME280;45172;55.006;73.460;2023-05-23T05:47:55;101529.88;;;24.39;26.42
59375;BME280;45172;55.006;73.460;2023-05-23T05:50:20;101571.91;;;24.55;26.46
59375;BME280;45172;55.006;73.460;2023-05-23T05:52:47;101550.38;;;24.49;26.10
59375;BME280;45172;55.006;73.460;2023-05-23T05:55:13;101552.84;;;24.58;27.03
59375;BME280;45172;55.006;73.460;2023-05-23T05:57:40;101567.31;;;24.59;26.32
59375;BME280;45172;55.006;73.460;2023-05-23T06:00:07;101552.97;;;24.54;26.26
59375;BME280;45172;55.006;73.460;2023-05-23T06:02:40;101548.25;;;24.62;26.52
59375;BME280;45172;55.006;73.460;2023-05-23T06:05:10;101548.38;;;24.57;26.46
59375;BME280;45172;55.006;73.460;2023-05-23T06:07:42;101547.44;;;24.58;25.73
59375;BME280;45172;55.006;73.460;2023-05-23T06:10:09;101545.22;;;24.38;26.19
59375;BME280;45172;55.006;73.460;2023-05-23T06:12:37;101548.72;;;24.42;25.92
59375;BME280;45172;55.006;73.460;2023-05-23T06:15:08;101534.34;;;24.40;25.61
59375;BME280;45172;55.006;73.460;2023-05-23T06:17:39;101534.94;;;24.53;25.30
59375;BME280;45172;55.006;73.460;2023-05-23T06:20:05;101548.59;;;24.48;25.59
59375;BME280;45172;55.006;73.460;2023-05-23T06:22:37;101525.31;;;24.39;25.79
59375;BME280;45172;55.006;73.460;2023-05-23T06:25:06;101527.63;;;24.56;25.85
59375;BME280;45172;55.006;73.460;2023-05-23T06:27:32;101524.66;;;24.67;25.42
59375;BME280;45172;55.006;73.460;2023-05-23T06:30:02;101504.88;;;24.63;24.99
59375;BME280;45172;55.006;73.460;2023-05-23T06:32:28;101523.25;;;24.88;25.19
59375;BME280;45172;55.006;73.460;2023-05-23T06:34:54;101484.53;;;24.83;24.61
59375;BME280;45172;55.006;73.460;2023-05-23T06:37:20;101506.59;;;25.04;24.81
59375;BME280;45172;55.006;73.460;2023-05-23T06:39:47;101514.03;;;24.96;24.06
59375;BME280;45172;55.006;73.460;2023-05-23T06:42:14;101513.19;;;24.94;24.85
59375;BME280;45172;55.006;73.460;2023-05-23T06:44:40;101502.22;;;24.98;24.36
59375;BME280;45172;55.006;73.460;2023-05-23T06:47:06;101502.19;;;25.00;24.40
59375;BME280;45172;55.006;73.460;2023-05-23T06:49:32;101476.41;;;24.83;24.61
59375;BME280;45172;55.006;73.460;2023-05-23T06:51:58;101478.53;;;25.05;24.17
59375;BME280;45172;55.006;73.460;2023-05-23T06:54:24;101492.97;;;25.07;24.44
59375;BME280;45172;55.006;73.460;2023-05-23T06:56:50;101509.84;;;25.17;23.73
59375;BME280;45172;55.006;73.460;2023-05-23T06:59:18;101487.44;;;25.10;23.91
59375;BME280;45172;55.006;73.460;2023-05-23T07:01:44;101513.53;;;25.14;23.81
59375;BME280;45172;55.006;73.460;2023-05-23T07:04:17;101504.13;;;24.95;23.67
59375;BME280;45172;55.006;73.460;2023-05-23T07:06:44;101511.06;;;25.05;23.76
59375;BME280;45172;55.006;73.460;2023-05-23T07:09:10;101497.63;;;25.02;23.16
59375;BME280;45172;55.006;73.460;2023-05-23T07:11:37;101495.78;;;25.02;24.39
59375;BME280;45172;55.006;73.460;2023-05-23T07:14:05;101463.44;;;24.96;23.62
59375;BME280;45172;55.006;73.460;2023-05-23T07:16:32;101498.03;;;25.20;23.93
59375;BME280;45172;55.006;73.460;2023-05-23T07:19:00;101493.25;;;25.29;23.00
59375;BME280;45172;55.006;73.460;2023-05-23T07:21:27;101504.13;;;25.28;23.57
59375;BME280;45172;55.006;73.460;2023-05-23T07:23:53;101489.84;;;25.23;23.43
59375;BME280;45172;55.006;73.460;2023-05-23T07:26:19;101474.91;;;25.39;23.41
59375;BME280;45172;55.006;73.460;2023-05-23T07:28:46;101488.09;;;25.20;24.05
59375;BME280;45172;55.006;73.460;2023-05-23T07:31:12;101500.59;;;25.24;22.99
59375;BME280;45172;55.006;73.460;2023-05-23T07:33:38;101445.00;;;25.09;23.62
59375;BME280;45172;55.006;73.460;2023-05-23T07:36:04;101475.84;;;25.38;23.59
59375;BME280;45172;55.006;73.460;2023-05-23T07:38:31;101448.97;;;25.29;23.32
59375;BME280;45172;55.006;73.460;2023-05-23T07:40:58;101472.97;;;25.75;24.10
59375;BME280;45172;55.006;73.460;2023-05-23T07:43:24;101456.94;;;25.35;23.16
59375;BME280;45172;55.006;73.460;2023-05-23T07:45:50;101483.47;;;25.24;23.59
59375;BME280;45172;55.006;73.460;2023-05-23T07:48:15;101461.94;;;25.17;23.94
59375;BME280;45172;55.006;73.460;2023-05-23T07:50:41;101460.47;;;25.37;23.30
59375;BME280;45172;55.006;73.460;2023-05-23T07:53:08;101466.75;;;25.39;22.88
59375;BME280;45172;55.006;73.460;2023-05-23T07:55:36;101456.56;;;25.48;23.17
59375;BME280;45172;55.006;73.460;2023-05-23T07:58:02;101457.69;;;25.40;22.59
59375;BME280;45172;55.006;73.460;2023-05-23T08:00:30;101459.97;;;25.56;23.45
59375;BME280;45172;55.006;73.460;2023-05-23T08:02:56;101467.28;;;25.54;23.05
59375;BME280;45172;55.006;73.460;2023-05-23T08:05:22;101445.38;;;25.60;22.75
59375;BME280;45172;55.006;73.460;2023-05-23T08:07:49;101461.91;;;25.51;23.01
59375;BME280;45172;55.006;73.460;2023-05-23T08:10:15;101465.88;;;25.39;23.01
59375;BME280;45172;55.006;73.460;2023-05-23T08:12:41;101453.22;;;25.39;23.16
59375;BME280;45172;55.006;73.460;2023-05-23T08:15:08;101440.31;;;25.48;23.37
59375;BME280;45172;55.006;73.460;2023-05-23T08:17:34;101428.25;;;25.58;23.09
59375;BME280;45172;55.006;73.460;2023-05-23T08:20:00;101441.31;;;25.75;23.86
59375;BME280;45172;55.006;73.460;2023-05-23T08:22:26;101442.25;;;25.74;23.17
59375;BME280;45172;55.006;73.460;2023-05-23T08:24:52;101444.53;;;25.58;22.60
59375;BME280;45172;55.006;73.460;2023-05-23T08:27:18;101440.84;;;25.61;22.61
59375;BME280;45172;55.006;73.460;2023-05-23T08:29:44;101420.50;;;25.46;23.31
59375;BME280;45172;55.006;73.460;2023-05-23T08:32:11;101445.13;;;25.69;22.44
59375;BME280;45172;55.006;73.460;2023-05-23T08:34:37;101447.25;;;25.88;23.27
59375;BME280;45172;55.006;73.460;2023-05-23T08:37:03;101439.94;;;25.90;23.13
59375;BME280;45172;55.006;73.460;2023-05-23T08:39:33;101452.06;;;26.07;22.81
59375;BME280;45172;55.006;73.460;2023-05-23T08:41:59;101446.56;;;25.81;21.17
59375;BME280;45172;55.006;73.460;2023-05-23T08:44:25;101456.16;;;25.63;21.25
59375;BME280;45172;55.006;73.460;2023-05-23T08:46:52;101454.28;;;25.65;21.40
59375;BME280;45172;55.006;73.460;2023-05-23T08:49:32;101430.56;;;25.40;21.51
59375;BME280;45172;55.006;73.460;2023-05-23T08:52:17;101433.63;;;25.61;20.89
59375;BME280;45172;55.006;73.460;2023-05-23T08:54:45;101443.28;;;25.70;20.58
59375;BME280;45172;55.006;73.460;2023-05-23T08:57:11;101418.13;;;25.65;20.82
59375;BME280;45172;55.006;73.460;2023-05-23T08:59:37;101414.84;;;25.83;20.61
59375;BME280;45172;55.006;73.460;2023-05-23T09:02:07;101433.44;;;25.96;20.82
59375;BME280;45172;55.006;73.460;2023-05-23T09:04:35;101431.00;;;25.87;20.15
59375;BME280;45172;55.006;73.460;2023-05-23T09:07:01;101438.91;;;25.66;20.88
59375;BME280;45172;55.006;73.460;2023-05-23T09:09:28;101416.47;;;25.59;20.72
59375;BME280;45172;55.006;73.460;2023-05-23T09:11:54;101420.09;;;25.60;20.44
59375;BME280;45172;55.006;73.460;2023-05-23T09:14:24;101415.66;;;25.57;20.18
59375;BME280;45172;55.006;73.460;2023-05-23T09:16:51;101421.56;;;25.70;20.14
59375;BME280;45172;55.006;73.460;2023-05-23T09:19:17;101386.06;;;25.48;20.94
59375;BME280;45172;55.006;73.460;2023-05-23T09:21:44;101435.84;;;25.77;20.42
59375;BME280;45172;55.006;73.460;2023-05-23T09:24:11;101422.47;;;25.70;20.86
59375;BME280;45172;55.006;73.460;2023-05-23T09:26:37;101399.06;;;25.66;21.31
59375;BME280;45172;55.006;73.460;2023-05-23T09:29:06;101405.59;;;25.89;20.89
59375;BME280;45172;55.006;73.460;2023-05-23T09:31:32;101428.81;;;25.99;20.06
59375;BME280;45172;55.006;73.460;2023-05-23T09:33:59;101407.78;;;25.78;19.97
59375;BME280;45172;55.006;73.460;2023-05-23T09:36:27;101416.44;;;25.89;20.38
59375;BME280;45172;55.006;73.460;2023-05-23T09:38:55;101427.41;;;25.86;20.04
59375;BME280;45172;55.006;73.460;2023-05-23T09:41:22;101402.13;;;25.84;19.59
59375;BME280;45172;55.006;73.460;2023-05-23T09:43:50;101369.03;;;25.73;19.86
59375;BME280;45172;55.006;73.460;2023-05-23T09:46:18;101417.25;;;25.93;19.90
59375;BME280;45172;55.006;73.460;2023-05-23T09:48:48;101418.03;;;25.96;19.19
59375;BME280;45172;55.006;73.460;2023-05-23T09:51:19;101383.03;;;25.89;19.36
59375;BME280;45172;55.006;73.460;2023-05-23T09:53:46;101401.66;;;25.99;19.99
59375;BME280;45172;55.006;73.460;2023-05-23T09:56:17;101381.66;;;26.02;20.31
59375;BME280;45172;55.006;73.460;2023-05-23T09:58:47;101390.06;;;26.23;19.30
59375;BME280;45172;55.006;73.460;2023-05-23T10:01:14;101414.50;;;26.23;19.28
59375;BME280;45172;55.006;73.460;2023-05-23T10:03:51;101392.00;;;25.91;19.35
59375;BME280;45172;55.006;73.460;2023-05-23T10:06:43;101403.13;;;26.10;19.38
59375;BME280;45172;55.006;73.460;2023-05-23T10:09:16;101387.81;;;26.07;19.52
59375;BME280;45172;55.006;73.460;2023-05-23T10:14:51;101391.78;;;26.25;20.01
59375;BME280;45172;55.006;73.460;2023-05-23T10:20:15;101388.84;;;26.03;19.58
59375;BME280;45172;55.006;73.460;2023-05-23T10:22:42;101377.97;;;26.05;19.54
59375;BME280;45172;55.006;73.460;2023-05-23T10:25:08;101391.22;;;26.14;19.68
59375;BME280;45172;55.006;73.460;2023-05-23T10:27:38;101389.75;;;26.04;19.82
59375;BME280;45172;55.006;73.460;2023-05-23T10:30:13;101391.78;;;25.97;19.94
59375;BME280;45172;55.006;73.460;2023-05-23T10:32:39;101378.91;;;26.04;19.89
59375;BME280;45172;55.006;73.460;2023-05-23T10:35:24;101389.53;;;26.11;20.42
59375;BME280;45172;55.006;73.460;2023-05-23T10:38:01;101394.31;;;26.32;20.12
59375;BME280;45172;55.006;73.460;2023-05-23T10:43:06;101388.25;;;26.23;19.99
59375;BME280;45172;55.006;73.460;2023-05-23T10:45:39;101394.59;;;26.22;19.57
59375;BME280;45172;55.006;73.460;2023-05-23T10:51:06;101390.84;;;25.98;19.84
59375;BME280;45172;55.006;73.460;2023-05-23T10:53:45;101383.09;;;25.85;20.40
59375;BME280;45172;55.006;73.460;2023-05-23T10:56:22;101385.22;;;26.04;20.07
59375;BME280;45172;55.006;73.460;2023-05-23T10:58:55;101393.25;;;26.07;20.50
59375;BME280;45172;55.006;73.460;2023-05-23T11:01:23;101388.22;;;25.95;20.58
59375;BME280;45172;55.006;73.460;2023-05-23T11:03:51;101398.16;;;25.96;21.37
59375;BME280;45172;55.006;73.460;2023-05-23T11:06:32;101358.56;;;25.60;20.44
59375;BME280;45172;55.006;73.460;2023-05-23T11:14:30;101377.63;;;26.14;20.53
59375;BME280;45172;55.006;73.460;2023-05-23T11:16:57;101374.00;;;26.15;20.51
59375;BME280;45172;55.006;73.460;2023-05-23T11:19:25;101361.50;;;26.09;20.34
59375;BME280;45172;55.006;73.460;2023-05-23T11:22:03;101363.50;;;26.33;20.77
59375;BME280;45172;55.006;73.460;2023-05-23T11:24:52;101370.72;;;26.32;20.59
59375;BME280;45172;55.006;73.460;2023-05-23T11:27:29;101378.78;;;26.35;20.10
59375;BME280;45172;55.006;73.460;2023-05-23T11:29:58;101369.16;;;26.25;20.53
59375;BME280;45172;55.006;73.460;2023-05-23T11:32:27;101368.66;;;26.12;20.10
59375;BME280;45172;55.006;73.460;2023-05-23T11:34:54;101372.22;;;26.14;20.17
59375;BME280;45172;55.006;73.460;2023-05-23T11:37:20;101365.13;;;26.10;19.99
59375;BME280;45172;55.006;73.460;2023-05-23T11:39:48;101371.59;;;26.06;20.47
59375;BME280;45172;55.006;73.460;2023-05-23T11:42:14;101368.31;;;25.96;19.97
59375;BME280;45172;55.006;73.460;2023-05-23T11:45:12;101375.56;;;25.95;20.77
59375;BME280;45172;55.006;73.460;2023-05-23T11:47:41;101375.50;;;25.97;21.07
59375;BME280;45172;55.006;73.460;2023-05-23T11:50:07;101368.50;;;25.90;20.01
59375;BME280;45172;55.006;73.460;2023-05-23T11:52:34;101359.78;;;25.80;20.79
59375;BME280;45172;55.006;73.460;2023-05-23T11:55:00;101353.22;;;25.87;20.39
59375;BME280;45172;55.006;73.460;2023-05-23T11:57:26;101337.25;;;25.78;21.12
59375;BME280;45172;55.006;73.460;2023-05-23T11:59:54;101365.47;;;25.99;20.28
59375;BME280;45172;55.006;73.460;2023-05-23T12:02:20;101379.25;;;25.93;19.88
59375;BME280;45172;55.006;73.460;2023-05-23T12:04:49;101366.66;;;25.90;20.38
59375;BME280;45172;55.006;73.460;2023-05-23T12:07:18;101381.09;;;25.92;19.91
59375;BME280;45172;55.006;73.460;2023-05-23T12:09:45;101375.56;;;25.95;20.54
59375;BME280;45172;55.006;73.460;2023-05-23T12:12:14;101376.94;;;26.09;20.21
59375;BME280;45172;55.006;73.460;2023-05-23T12:14:57;101386.38;;;25.97;20.02
59375;BME280;45172;55.006;73.460;2023-05-23T12:17:24;101382.00;;;25.91;19.34
59375;BME280;45172;55.006;73.460;2023-05-23T12:19:51;101354.22;;;25.83;19.50
59375;BME280;45172;55.006;73.460;2023-05-23T12:22:22;101361.16;;;25.93;19.87
59375;BME280;45172;55.006;73.460;2023-05-23T12:24:55;101342.59;;;25.79;20.44
59375;BME280;45172;55.006;73.460;2023-05-23T12:27:29;101368.97;;;26.03;19.18
59375;BME280;45172;55.006;73.460;2023-05-23T12:30:13;101360.59;;;25.82;19.73
59375;BME280;45172;55.006;73.460;2023-05-23T12:32:42;101350.81;;;25.78;19.73
59375;BME280;45172;55.006;73.460;2023-05-23T12:35:10;101345.38;;;25.78;19.45
59375;BME280;45172;55.006;73.460;2023-05-23T12:37:40;101358.59;;;25.89;19.69
59375;BME280;45172;55.006;73.460;2023-05-23T12:40:17;101361.97;;;25.95;19.91
59375;BME280;45172;55.006;73.460;2023-05-23T12:45:34;101330.31;;;25.67;20.44
59375;BME280;45172;55.006;73.460;2023-05-23T12:48:02;101364.06;;;25.87;20.19
59375;BME280;45172;55.006;73.460;2023-05-23T12:50:29;101367.59;;;25.89;19.67
59375;BME280;45172;55.006;73.460;2023-05-23T12:52:56;101340.03;;;25.75;19.85
59375;BME280;45172;55.006;73.460;2023-05-23T12:55:22;101368.34;;;25.94;19.89
59375;BME280;45172;55.006;73.460;2023-05-23T12:57:48;101367.81;;;26.11;19.82
59375;BME280;45172;55.006;73.460;2023-05-23T13:00:14;101370.94;;;26.26;19.53
59375;BME280;45172;55.006;73.460;2023-05-23T13:02:40;101360.84;;;26.30;19.64
59375;BME280;45172;55.006;73.460;2023-05-23T13:05:07;101349.56;;;26.42;19.69
59375;BME280;45172;55.006;73.460;2023-05-23T13:07:33;101361.00;;;26.52;19.56
59375;BME280;45172;55.006;73.460;2023-05-23T13:10:00;101349.16;;;26.55;19.65
59375;BME280;45172;55.006;73.460;2023-05-23T13:12:28;101343.41;;;26.89;19.61
59375;BME280;45172;55.006;73.460;2023-05-23T13:14:55;101354.16;;;26.92;19.57
59375;BME280;45172;55.006;73.460;2023-05-23T13:17:23;101356.00;;;27.16;19.31
59375;BME280;45172;55.006;73.460;2023-05-23T13:19:49;101352.78;;;27.28;19.14
59375;BME280;45172;55.006;73.460;2023-05-23T13:22:15;101350.63;;;27.14;18.99
59375;BME280;45172;55.006;73.460;2023-05-23T13:24:43;101361.91;;;27.03;19.47
59375;BME280;45172;55.006;73.460;2023-05-23T13:27:09;101344.59;;;27.06;19.26
59375;BME280;45172;55.006;73.460;2023-05-23T13:29:36;101334.16;;;26.93;19.13
59375;BME280;45172;55.006;73.460;2023-05-23T13:32:02;101362.31;;;27.16;19.38
59375;BME280;45172;55.006;73.460;2023-05-23T13:34:28;101360.84;;;27.31;19.61
59375;BME280;45172;55.006;73.460;2023-05-23T13:36:54;101362.97;;;27.47;19.47
59375;BME280;45172;55.006;73.460;2023-05-23T13:39:20;101359.38;;;27.69;18.68
59375;BME280;45172;55.006;73.460;2023-05-23T13:41:50;101345.97;;;27.40;19.15
59375;BME280;45172;55.006;73.460;2023-05-23T13:44:16;101355.09;;;27.39;19.34
59375;BME280;45172;55.006;73.460;2023-05-23T13:46:42;101346.59;;;27.25;19.08
59375;BME280;45172;55.006;73.460;2023-05-23T13:49:08;101339.59;;;26.93;19.24